ePrivacy and GPDR Cookie Consent by Cookie Consent
EmailTwitter


Observations de surface / Europe / LIRF (16242)

Régions: Québec | Canada | États-Unis | Europe | France | UK | Ailleurs
Station
Affichage
Infos & localisation pour LIRF (16242) | Aide pour décoder les METARs

Observations prises le 2024-07-22 à 22H20 UTC (LIRF)

Température: 23.0 Celsius

Point de rosée: 18.0 Celsius

Humidité relative: 73%

Indice Humidex 29.

Vents: Variable à 4 km/h ou 2 noeuds.

Pression au niveau moyen de la mer: 101.20 kilopascals.

Observation METAR:

LIRF 222220Z VRB02KT CAVOK 23/18 Q1012 NOSIG=